sensor_id;sensor_type;location;lat;lon;timestamp;temperature;humidity
22069;DHT22;13887;57.196;-2.100;2024-03-29T00:01:24;6.51;96.68
22069;DHT22;13887;57.196;-2.100;2024-03-29T00:03:50;6.50;96.65
22069;DHT22;13887;57.196;-2.100;2024-03-29T00:06:19;6.49;96.56
22069;DHT22;13887;57.196;-2.100;2024-03-29T00:08:45;6.48;96.64
22069;DHT22;13887;57.196;-2.100;2024-03-29T00:11:12;6.50;96.55
22069;DHT22;13887;57.196;-2.100;2024-03-29T00:13:38;6.49;96.55
22069;DHT22;13887;57.196;-2.100;2024-03-29T00:16:05;6.49;96.59
22069;DHT22;13887;57.196;-2.100;2024-03-29T00:18:32;6.48;96.65
22069;DHT22;13887;57.196;-2.100;2024-03-29T00:20:58;6.46;96.71
22069;DHT22;13887;57.196;-2.100;2024-03-29T00:23:24;6.43;96.82
22069;DHT22;13887;57.196;-2.100;2024-03-29T00:25:50;6.44;96.71
22069;DHT22;13887;57.196;-2.100;2024-03-29T00:28:16;6.42;96.77
22069;DHT22;13887;57.196;-2.100;2024-03-29T00:30:42;6.43;96.78
22069;DHT22;13887;57.196;-2.100;2024-03-29T00:33:08;6.44;96.65
22069;DHT22;13887;57.196;-2.100;2024-03-29T00:35:34;6.45;96.56
22069;DHT22;13887;57.196;-2.100;2024-03-29T00:38:00;6.45;96.54
22069;DHT22;13887;57.196;-2.100;2024-03-29T00:40:26;6.48;96.56
22069;DHT22;13887;57.196;-2.100;2024-03-29T00:42:52;6.44;96.65
22069;DHT22;13887;57.196;-2.100;2024-03-29T00:45:18;6.45;96.62
22069;DHT22;13887;57.196;-2.100;2024-03-29T00:47:44;6.44;96.79
22069;DHT22;13887;57.196;-2.100;2024-03-29T00:50:10;6.43;96.98
22069;DHT22;13887;57.196;-2.100;2024-03-29T00:52:36;6.44;96.89
22069;DHT22;13887;57.196;-2.100;2024-03-29T00:55:02;6.42;96.92
22069;DHT22;13887;57.196;-2.100;2024-03-29T00:57:29;6.44;96.90
22069;DHT22;13887;57.196;-2.100;2024-03-29T00:59:55;6.42;96.75
22069;DHT22;13887;57.196;-2.100;2024-03-29T01:02:23;6.44;96.70
22069;DHT22;13887;57.196;-2.100;2024-03-29T01:04:50;6.46;96.61
22069;DHT22;13887;57.196;-2.100;2024-03-29T01:07:16;6.49;96.47
22069;DHT22;13887;57.196;-2.100;2024-03-29T01:09:43;6.49;96.47
22069;DHT22;13887;57.196;-2.100;2024-03-29T01:12:10;6.50;96.49
22069;DHT22;13887;57.196;-2.100;2024-03-29T01:14:36;6.50;96.36
22069;DHT22;13887;57.196;-2.100;2024-03-29T01:17:02;6.49;96.36
22069;DHT22;13887;57.196;-2.100;2024-03-29T01:19:28;6.49;96.43
22069;DHT22;13887;57.196;-2.100;2024-03-29T01:21:54;6.48;96.37
22069;DHT22;13887;57.196;-2.100;2024-03-29T01:24:20;6.49;96.52
22069;DHT22;13887;57.196;-2.100;2024-03-29T01:26:46;6.50;96.54
22069;DHT22;13887;57.196;-2.100;2024-03-29T01:29:12;6.51;96.55
22069;DHT22;13887;57.196;-2.100;2024-03-29T01:31:38;6.50;96.49
22069;DHT22;13887;57.196;-2.100;2024-03-29T01:34:04;6.49;96.50
22069;DHT22;13887;57.196;-2.100;2024-03-29T01:36:30;6.51;96.48
22069;DHT22;13887;57.196;-2.100;2024-03-29T01:38:56;6.50;96.55
22069;DHT22;13887;57.196;-2.100;2024-03-29T01:41:24;6.49;96.67
22069;DHT22;13887;57.196;-2.100;2024-03-29T01:43:53;6.49;96.63
22069;DHT22;13887;57.196;-2.100;2024-03-29T01:46:22;6.48;96.74
22069;DHT22;13887;57.196;-2.100;2024-03-29T01:48:52;6.49;96.66
22069;DHT22;13887;57.196;-2.100;2024-03-29T01:51:20;6.48;96.82
22069;DHT22;13887;57.196;-2.100;2024-03-29T01:53:50;6.50;96.66
22069;DHT22;13887;57.196;-2.100;2024-03-29T01:56:18;6.48;96.83
22069;DHT22;13887;57.196;-2.100;2024-03-29T01:58:45;6.48;96.88
22069;DHT22;13887;57.196;-2.100;2024-03-29T02:01:12;6.46;96.94
22069;DHT22;13887;57.196;-2.100;2024-03-29T02:03:39;6.50;97.03
22069;DHT22;13887;57.196;-2.100;2024-03-29T02:06:06;6.48;97.24
22069;DHT22;13887;57.196;-2.100;2024-03-29T02:08:33;6.49;97.10
22069;DHT22;13887;57.196;-2.100;2024-03-29T02:10:59;6.46;97.31
22069;DHT22;13887;57.196;-2.100;2024-03-29T02:13:26;6.43;97.55
22069;DHT22;13887;57.196;-2.100;2024-03-29T02:15:52;6.43;97.52
22069;DHT22;13887;57.196;-2.100;2024-03-29T02:18:18;6.43;97.61
22069;DHT22;13887;57.196;-2.100;2024-03-29T02:20:44;6.43;97.65
22069;DHT22;13887;57.196;-2.100;2024-03-29T02:23:13;6.46;97.48
22069;DHT22;13887;57.196;-2.100;2024-03-29T02:25:39;6.45;97.67
22069;DHT22;13887;57.196;-2.100;2024-03-29T02:28:06;6.42;97.39
22069;DHT22;13887;57.196;-2.100;2024-03-29T02:30:32;6.41;97.29
22069;DHT22;13887;57.196;-2.100;2024-03-29T02:33:01;6.44;97.03
22069;DHT22;13887;57.196;-2.100;2024-03-29T02:35:28;6.43;96.69
22069;DHT22;13887;57.196;-2.100;2024-03-29T02:37:54;6.42;96.58
22069;DHT22;13887;57.196;-2.100;2024-03-29T02:40:20;6.43;96.52
22069;DHT22;13887;57.196;-2.100;2024-03-29T02:42:50;6.42;96.55
22069;DHT22;13887;57.196;-2.100;2024-03-29T02:45:16;6.41;96.51
22069;DHT22;13887;57.196;-2.100;2024-03-29T02:47:43;6.40;96.41
22069;DHT22;13887;57.196;-2.100;2024-03-29T02:50:13;6.39;96.52
22069;DHT22;13887;57.196;-2.100;2024-03-29T02:52:39;6.39;96.36
22069;DHT22;13887;57.196;-2.100;2024-03-29T02:55:05;6.39;96.39
22069;DHT22;13887;57.196;-2.100;2024-03-29T02:57:31;6.40;96.38
22069;DHT22;13887;57.196;-2.100;2024-03-29T02:59:57;6.41;96.33
22069;DHT22;13887;57.196;-2.100;2024-03-29T03:02:23;6.41;96.16
22069;DHT22;13887;57.196;-2.100;2024-03-29T03:04:50;6.39;96.39
22069;DHT22;13887;57.196;-2.100;2024-03-29T03:07:16;6.39;96.36
22069;DHT22;13887;57.196;-2.100;2024-03-29T03:10:00;6.41;96.30
22069;DHT22;13887;57.196;-2.100;2024-03-29T03:12:45;6.38;96.34
22069;DHT22;13887;57.196;-2.100;2024-03-29T03:15:11;6.40;96.28
22069;DHT22;13887;57.196;-2.100;2024-03-29T03:17:37;6.40;96.10
22069;DHT22;13887;57.196;-2.100;2024-03-29T03:20:03;6.41;96.04
22069;DHT22;13887;57.196;-2.100;2024-03-29T03:22:32;6.36;95.96
22069;DHT22;13887;57.196;-2.100;2024-03-29T03:24:58;6.30;96.01
22069;DHT22;13887;57.196;-2.100;2024-03-29T03:27:24;6.31;95.93
22069;DHT22;13887;57.196;-2.100;2024-03-29T03:29:50;6.26;95.72
22069;DHT22;13887;57.196;-2.100;2024-03-29T03:32:17;6.28;95.59
22069;DHT22;13887;57.196;-2.100;2024-03-29T03:34:43;6.31;95.55
22069;DHT22;13887;57.196;-2.100;2024-03-29T03:37:09;6.30;95.47
22069;DHT22;13887;57.196;-2.100;2024-03-29T03:39:35;6.29;95.57
22069;DHT22;13887;57.196;-2.100;2024-03-29T03:42:01;6.34;95.49
22069;DHT22;13887;57.196;-2.100;2024-03-29T03:44:27;6.35;95.18
22069;DHT22;13887;57.196;-2.100;2024-03-29T03:46:55;6.37;95.15
22069;DHT22;13887;57.196;-2.100;2024-03-29T03:49:21;6.34;94.94
22069;DHT22;13887;57.196;-2.100;2024-03-29T03:51:47;6.31;95.14
22069;DHT22;13887;57.196;-2.100;2024-03-29T03:54:13;6.33;95.26
22069;DHT22;13887;57.196;-2.100;2024-03-29T03:56:39;6.34;95.14
22069;DHT22;13887;57.196;-2.100;2024-03-29T03:59:05;6.31;95.07
22069;DHT22;13887;57.196;-2.100;2024-03-29T04:01:31;6.31;95.07
22069;DHT22;13887;57.196;-2.100;2024-03-29T04:03:57;6.31;94.92
22069;DHT22;13887;57.196;-2.100;2024-03-29T04:06:23;6.31;94.85
22069;DHT22;13887;57.196;-2.100;2024-03-29T04:08:49;6.29;94.97
22069;DHT22;13887;57.196;-2.100;2024-03-29T04:11:15;6.30;95.01
22069;DHT22;13887;57.196;-2.100;2024-03-29T04:13:42;6.29;94.88
22069;DHT22;13887;57.196;-2.100;2024-03-29T04:16:08;6.27;94.95
22069;DHT22;13887;57.196;-2.100;2024-03-29T04:18:34;6.27;94.99
22069;DHT22;13887;57.196;-2.100;2024-03-29T04:21:01;6.29;94.97
22069;DHT22;13887;57.196;-2.100;2024-03-29T04:23:28;6.29;94.86
22069;DHT22;13887;57.196;-2.100;2024-03-29T04:25:55;6.29;94.84
22069;DHT22;13887;57.196;-2.100;2024-03-29T04:28:22;6.28;94.73
22069;DHT22;13887;57.196;-2.100;2024-03-29T04:31:00;6.28;94.62
22069;DHT22;13887;57.196;-2.100;2024-03-29T04:33:27;6.24;94.61
22069;DHT22;13887;57.196;-2.100;2024-03-29T04:36:03;6.24;94.58
22069;DHT22;13887;57.196;-2.100;2024-03-29T04:38:30;6.21;94.65
22069;DHT22;13887;57.196;-2.100;2024-03-29T04:40:58;6.21;94.53
22069;DHT22;13887;57.196;-2.100;2024-03-29T04:43:26;6.24;94.40
22069;DHT22;13887;57.196;-2.100;2024-03-29T04:46:08;6.26;94.38
22069;DHT22;13887;57.196;-2.100;2024-03-29T04:48:38;6.24;94.30
22069;DHT22;13887;57.196;-2.100;2024-03-29T04:51:05;6.26;94.40
22069;DHT22;13887;57.196;-2.100;2024-03-29T04:53:31;6.25;94.36
22069;DHT22;13887;57.196;-2.100;2024-03-29T04:55:57;6.23;94.28
22069;DHT22;13887;57.196;-2.100;2024-03-29T04:58:27;6.25;94.33
22069;DHT22;13887;57.196;-2.100;2024-03-29T05:00:54;6.22;94.37
22069;DHT22;13887;57.196;-2.100;2024-03-29T05:03:21;6.24;94.46
22069;DHT22;13887;57.196;-2.100;2024-03-29T05:05:50;6.28;94.24
22069;DHT22;13887;57.196;-2.100;2024-03-29T05:08:16;6.28;94.25
22069;DHT22;13887;57.196;-2.100;2024-03-29T05:10:43;6.27;94.14
22069;DHT22;13887;57.196;-2.100;2024-03-29T05:13:09;6.25;94.14
22069;DHT22;13887;57.196;-2.100;2024-03-29T05:15:35;6.23;94.26
22069;DHT22;13887;57.196;-2.100;2024-03-29T05:18:02;6.25;94.29
22069;DHT22;13887;57.196;-2.100;2024-03-29T05:20:30;6.25;94.12
22069;DHT22;13887;57.196;-2.100;2024-03-29T05:22:58;6.24;94.18
22069;DHT22;13887;57.196;-2.100;2024-03-29T05:25:24;6.25;94.24
22069;DHT22;13887;57.196;-2.100;2024-03-29T05:27:50;6.23;94.13
22069;DHT22;13887;57.196;-2.100;2024-03-29T05:30:17;6.19;94.40
22069;DHT22;13887;57.196;-2.100;2024-03-29T05:32:43;6.22;94.30
22069;DHT22;13887;57.196;-2.100;2024-03-29T05:35:10;6.21;94.33
22069;DHT22;13887;57.196;-2.100;2024-03-29T05:37:36;6.23;94.30
22069;DHT22;13887;57.196;-2.100;2024-03-29T05:40:03;6.24;94.28
22069;DHT22;13887;57.196;-2.100;2024-03-29T05:42:32;6.23;94.19
22069;DHT22;13887;57.196;-2.100;2024-03-29T05:45:24;6.21;94.22
22069;DHT22;13887;57.196;-2.100;2024-03-29T05:47:53;6.19;94.20
22069;DHT22;13887;57.196;-2.100;2024-03-29T05:50:19;6.21;94.20
22069;DHT22;13887;57.196;-2.100;2024-03-29T05:52:45;6.21;94.20
22069;DHT22;13887;57.196;-2.100;2024-03-29T05:55:11;6.16;94.05
22069;DHT22;13887;57.196;-2.100;2024-03-29T05:57:37;6.15;94.11
22069;DHT22;13887;57.196;-2.100;2024-03-29T06:00:12;6.15;94.11
22069;DHT22;13887;57.196;-2.100;2024-03-29T06:02:39;6.16;94.07
22069;DHT22;13887;57.196;-2.100;2024-03-29T06:05:06;6.17;94.06
22069;DHT22;13887;57.196;-2.100;2024-03-29T06:07:32;6.14;94.02
22069;DHT22;13887;57.196;-2.100;2024-03-29T06:09:59;6.17;94.04
22069;DHT22;13887;57.196;-2.100;2024-03-29T06:12:27;6.19;94.01
22069;DHT22;13887;57.196;-2.100;2024-03-29T06:14:53;6.15;93.98
22069;DHT22;13887;57.196;-2.100;2024-03-29T06:17:37;6.19;93.94
22069;DHT22;13887;57.196;-2.100;2024-03-29T06:20:04;6.17;93.88
22069;DHT22;13887;57.196;-2.100;2024-03-29T06:22:31;6.19;93.92
22069;DHT22;13887;57.196;-2.100;2024-03-29T06:24:57;6.22;93.92
22069;DHT22;13887;57.196;-2.100;2024-03-29T06:27:33;6.21;93.88
22069;DHT22;13887;57.196;-2.100;2024-03-29T06:30:00;6.21;93.86
22069;DHT22;13887;57.196;-2.100;2024-03-29T06:32:26;6.22;93.80
22069;DHT22;13887;57.196;-2.100;2024-03-29T06:34:52;6.22;93.85
22069;DHT22;13887;57.196;-2.100;2024-03-29T06:37:18;6.23;93.84
22069;DHT22;13887;57.196;-2.100;2024-03-29T06:39:51;6.22;93.77
22069;DHT22;13887;57.196;-2.100;2024-03-29T06:42:17;6.19;93.90
22069;DHT22;13887;57.196;-2.100;2024-03-29T06:44:43;6.19;93.98
22069;DHT22;13887;57.196;-2.100;2024-03-29T06:47:09;6.17;94.01
22069;DHT22;13887;57.196;-2.100;2024-03-29T06:49:35;6.19;93.90
22069;DHT22;13887;57.196;-2.100;2024-03-29T06:52:02;6.20;93.78
22069;DHT22;13887;57.196;-2.100;2024-03-29T06:54:28;6.17;93.75
22069;DHT22;13887;57.196;-2.100;2024-03-29T06:56:55;6.20;93.73
22069;DHT22;13887;57.196;-2.100;2024-03-29T06:59:21;6.17;93.85
22069;DHT22;13887;57.196;-2.100;2024-03-29T07:01:48;6.16;93.66
22069;DHT22;13887;57.196;-2.100;2024-03-29T07:04:21;6.17;93.71
22069;DHT22;13887;57.196;-2.100;2024-03-29T07:06:48;6.17;93.69
22069;DHT22;13887;57.196;-2.100;2024-03-29T07:09:18;6.17;93.69
22069;DHT22;13887;57.196;-2.100;2024-03-29T07:11:49;6.15;93.73
22069;DHT22;13887;57.196;-2.100;2024-03-29T07:14:16;6.16;93.78
22069;DHT22;13887;57.196;-2.100;2024-03-29T07:16:43;6.16;93.72
22069;DHT22;13887;57.196;-2.100;2024-03-29T07:19:09;6.20;93.64
22069;DHT22;13887;57.196;-2.100;2024-03-29T07:21:43;6.17;93.79
22069;DHT22;13887;57.196;-2.100;2024-03-29T07:24:09;6.19;93.80
22069;DHT22;13887;57.196;-2.100;2024-03-29T07:26:36;6.20;93.86
22069;DHT22;13887;57.196;-2.100;2024-03-29T07:29:02;6.21;93.78
22069;DHT22;13887;57.196;-2.100;2024-03-29T07:31:31;6.21;93.69
22069;DHT22;13887;57.196;-2.100;2024-03-29T07:33:57;6.21;93.67
22069;DHT22;13887;57.196;-2.100;2024-03-29T07:36:23;6.21;93.80
22069;DHT22;13887;57.196;-2.100;2024-03-29T07:38:52;6.23;93.77
22069;DHT22;13887;57.196;-2.100;2024-03-29T07:41:18;6.24;93.67
22069;DHT22;13887;57.196;-2.100;2024-03-29T07:44:11;6.23;93.47
22069;DHT22;13887;57.196;-2.100;2024-03-29T07:46:37;6.22;93.69
22069;DHT22;13887;57.196;-2.100;2024-03-29T07:49:06;6.23;93.75
22069;DHT22;13887;57.196;-2.100;2024-03-29T07:51:33;6.24;93.63
22069;DHT22;13887;57.196;-2.100;2024-03-29T07:54:00;6.26;93.57
22069;DHT22;13887;57.196;-2.100;2024-03-29T07:56:26;6.25;93.62
22069;DHT22;13887;57.196;-2.100;2024-03-29T07:58:53;6.26;93.72
22069;DHT22;13887;57.196;-2.100;2024-03-29T08:01:23;6.26;93.72
22069;DHT22;13887;57.196;-2.100;2024-03-29T08:03:53;6.27;93.72
22069;DHT22;13887;57.196;-2.100;2024-03-29T08:06:19;6.28;93.72
22069;DHT22;13887;57.196;-2.100;2024-03-29T08:08:45;6.26;93.78
22069;DHT22;13887;57.196;-2.100;2024-03-29T08:11:12;6.27;93.85
22069;DHT22;13887;57.196;-2.100;2024-03-29T08:13:38;6.26;93.94
22069;DHT22;13887;57.196;-2.100;2024-03-29T08:16:06;6.28;93.95
22069;DHT22;13887;57.196;-2.100;2024-03-29T08:18:32;6.27;93.92
22069;DHT22;13887;57.196;-2.100;2024-03-29T08:20:59;6.29;93.92
22069;DHT22;13887;57.196;-2.100;2024-03-29T08:23:26;6.28;93.95
22069;DHT22;13887;57.196;-2.100;2024-03-29T08:25:52;6.28;93.78
22069;DHT22;13887;57.196;-2.100;2024-03-29T08:28:23;6.26;93.94
22069;DHT22;13887;57.196;-2.100;2024-03-29T08:31:00;6.25;94.01
22069;DHT22;13887;57.196;-2.100;2024-03-29T08:33:27;6.27;93.88
22069;DHT22;13887;57.196;-2.100;2024-03-29T08:35:53;6.28;93.97
22069;DHT22;13887;57.196;-2.100;2024-03-29T08:38:19;6.28;93.90
22069;DHT22;13887;57.196;-2.100;2024-03-29T08:40:45;6.28;93.89
22069;DHT22;13887;57.196;-2.100;2024-03-29T08:43:17;6.29;93.89
22069;DHT22;13887;57.196;-2.100;2024-03-29T08:45:44;6.33;93.81
22069;DHT22;13887;57.196;-2.100;2024-03-29T08:48:10;6.36;93.89
22069;DHT22;13887;57.196;-2.100;2024-03-29T08:50:36;6.41;93.80
22069;DHT22;13887;57.196;-2.100;2024-03-29T08:53:03;6.44;93.59
22069;DHT22;13887;57.196;-2.100;2024-03-29T08:55:30;6.48;93.57
22069;DHT22;13887;57.196;-2.100;2024-03-29T08:58:00;6.50;93.63
22069;DHT22;13887;57.196;-2.100;2024-03-29T09:00:27;6.53;93.77
22069;DHT22;13887;57.196;-2.100;2024-03-29T09:02:53;6.53;93.76
22069;DHT22;13887;57.196;-2.100;2024-03-29T09:05:20;6.54;93.84
22069;DHT22;13887;57.196;-2.100;2024-03-29T09:07:48;6.56;93.89
22069;DHT22;13887;57.196;-2.100;2024-03-29T09:10:15;6.56;94.04
22069;DHT22;13887;57.196;-2.100;2024-03-29T09:12:41;6.56;94.04
22069;DHT22;13887;57.196;-2.100;2024-03-29T09:15:07;6.58;94.10
22069;DHT22;13887;57.196;-2.100;2024-03-29T09:17:42;6.61;94.01
22069;DHT22;13887;57.196;-2.100;2024-03-29T09:20:09;6.60;93.95
22069;DHT22;13887;57.196;-2.100;2024-03-29T09:22:35;6.65;93.90
22069;DHT22;13887;57.196;-2.100;2024-03-29T09:25:01;6.65;93.93
22069;DHT22;13887;57.196;-2.100;2024-03-29T09:27:27;6.67;93.98
22069;DHT22;13887;57.196;-2.100;2024-03-29T09:29:57;6.66;94.04
22069;DHT22;13887;57.196;-2.100;2024-03-29T09:32:23;6.67;94.10
22069;DHT22;13887;57.196;-2.100;2024-03-29T09:34:49;6.68;94.11
22069;DHT22;13887;57.196;-2.100;2024-03-29T09:37:15;6.69;94.13
22069;DHT22;13887;57.196;-2.100;2024-03-29T09:39:41;6.69;94.23
22069;DHT22;13887;57.196;-2.100;2024-03-29T09:42:10;6.71;94.15
22069;DHT22;13887;57.196;-2.100;2024-03-29T09:44:39;6.73;94.17
22069;DHT22;13887;57.196;-2.100;2024-03-29T09:47:07;6.72;94.10
22069;DHT22;13887;57.196;-2.100;2024-03-29T09:49:34;6.73;94.17
22069;DHT22;13887;57.196;-2.100;2024-03-29T09:52:00;6.74;94.08
22069;DHT22;13887;57.196;-2.100;2024-03-29T09:54:30;6.78;93.82
22069;DHT22;13887;57.196;-2.100;2024-03-29T09:56:57;6.78;93.88
22069;DHT22;13887;57.196;-2.100;2024-03-29T09:59:23;6.79;93.87
22069;DHT22;13887;57.196;-2.100;2024-03-29T10:01:50;6.81;93.82
22069;DHT22;13887;57.196;-2.100;2024-03-29T10:04:20;6.82;93.77
22069;DHT22;13887;57.196;-2.100;2024-03-29T10:06:46;6.81;93.54
22069;DHT22;13887;57.196;-2.100;2024-03-29T10:09:17;6.82;93.63
22069;DHT22;13887;57.196;-2.100;2024-03-29T10:11:44;6.82;93.56
22069;DHT22;13887;57.196;-2.100;2024-03-29T10:14:10;6.84;93.55
22069;DHT22;13887;57.196;-2.100;2024-03-29T10:16:36;6.86;93.42
22069;DHT22;13887;57.196;-2.100;2024-03-29T10:19:03;6.83;93.40
22069;DHT22;13887;57.196;-2.100;2024-03-29T10:21:30;6.86;93.41
22069;DHT22;13887;57.196;-2.100;2024-03-29T10:23:56;6.83;93.42
22069;DHT22;13887;57.196;-2.100;2024-03-29T10:26:22;6.88;93.47
22069;DHT22;13887;57.196;-2.100;2024-03-29T10:28:48;6.87;93.45
22069;DHT22;13887;57.196;-2.100;2024-03-29T10:31:15;6.90;93.49
22069;DHT22;13887;57.196;-2.100;2024-03-29T10:33:44;6.89;93.41
22069;DHT22;13887;57.196;-2.100;2024-03-29T10:36:10;6.88;93.39
22069;DHT22;13887;57.196;-2.100;2024-03-29T10:38:38;6.90;93.40
22069;DHT22;13887;57.196;-2.100;2024-03-29T10:41:05;6.88;93.35
22069;DHT22;13887;57.196;-2.100;2024-03-29T10:43:33;6.90;93.27
22069;DHT22;13887;57.196;-2.100;2024-03-29T10:46:02;6.95;93.30
22069;DHT22;13887;57.196;-2.100;2024-03-29T10:48:30;6.93;93.20
22069;DHT22;13887;57.196;-2.100;2024-03-29T10:50:58;6.95;93.04
22069;DHT22;13887;57.196;-2.100;2024-03-29T10:53:25;6.94;92.88
22069;DHT22;13887;57.196;-2.100;2024-03-29T10:55:58;6.96;92.89
22069;DHT22;13887;57.196;-2.100;2024-03-29T10:58:30;6.98;92.93
22069;DHT22;13887;57.196;-2.100;2024-03-29T11:00:57;6.99;92.82
22069;DHT22;13887;57.196;-2.100;2024-03-29T11:03:43;7.02;92.85
22069;DHT22;13887;57.196;-2.100;2024-03-29T11:06:12;7.03;92.77
22069;DHT22;13887;57.196;-2.100;2024-03-29T11:08:40;7.01;92.64
22069;DHT22;13887;57.196;-2.100;2024-03-29T11:11:12;7.05;92.69
22069;DHT22;13887;57.196;-2.100;2024-03-29T11:16:18;7.11;92.54
22069;DHT22;13887;57.196;-2.100;2024-03-29T11:18:47;7.12;92.27
22069;DHT22;13887;57.196;-2.100;2024-03-29T11:21:16;7.12;92.39
22069;DHT22;13887;57.196;-2.100;2024-03-29T11:23:49;7.15;92.37
22069;DHT22;13887;57.196;-2.100;2024-03-29T11:26:16;7.19;92.37
22069;DHT22;13887;57.196;-2.100;2024-03-29T11:28:48;7.20;92.34
22069;DHT22;13887;57.196;-2.100;2024-03-29T11:31:15;7.24;92.40
22069;DHT22;13887;57.196;-2.100;2024-03-29T11:36:11;7.24;92.02
22069;DHT22;13887;57.196;-2.100;2024-03-29T11:38:38;7.26;91.95
22069;DHT22;13887;57.196;-2.100;2024-03-29T11:41:26;7.29;92.02
22069;DHT22;13887;57.196;-2.100;2024-03-29T11:43:56;7.31;92.08
22069;DHT22;13887;57.196;-2.100;2024-03-29T11:46:24;7.33;92.14
22069;DHT22;13887;57.196;-2.100;2024-03-29T11:48:50;7.37;92.04
22069;DHT22;13887;57.196;-2.100;2024-03-29T11:51:21;7.41;92.16
22069;DHT22;13887;57.196;-2.100;2024-03-29T11:53:48;7.45;92.40
22069;DHT22;13887;57.196;-2.100;2024-03-29T11:56:17;7.45;92.88
22069;DHT22;13887;57.196;-2.100;2024-03-29T11:58:43;7.43;92.60
22069;DHT22;13887;57.196;-2.100;2024-03-29T12:01:15;7.44;92.54
22069;DHT22;13887;57.196;-2.100;2024-03-29T12:03:42;7.44;92.88
22069;DHT22;13887;57.196;-2.100;2024-03-29T12:06:09;7.42;93.01
22069;DHT22;13887;57.196;-2.100;2024-03-29T12:08:39;7.45;93.29
22069;DHT22;13887;57.196;-2.100;2024-03-29T12:11:07;7.44;93.43
22069;DHT22;13887;57.196;-2.100;2024-03-29T12:13:33;7.46;93.44
22069;DHT22;13887;57.196;-2.100;2024-03-29T12:16:00;7.52;93.21
22069;DHT22;13887;57.196;-2.100;2024-03-29T12:18:27;7.53;93.40
22069;DHT22;13887;57.196;-2.100;2024-03-29T12:21:02;7.54;93.66
22069;DHT22;13887;57.196;-2.100;2024-03-29T12:23:29;7.56;93.81
22069;DHT22;13887;57.196;-2.100;2024-03-29T12:25:58;7.55;93.46
22069;DHT22;13887;57.196;-2.100;2024-03-29T12:28:25;7.55;93.52
22069;DHT22;13887;57.196;-2.100;2024-03-29T12:30:52;7.56;93.64
22069;DHT22;13887;57.196;-2.100;2024-03-29T12:33:22;7.57;94.00
22069;DHT22;13887;57.196;-2.100;2024-03-29T12:35:50;7.59;93.78
22069;DHT22;13887;57.196;-2.100;2024-03-29T12:38:18;7.60;94.25
22069;DHT22;13887;57.196;-2.100;2024-03-29T12:40:46;7.59;93.99
22069;DHT22;13887;57.196;-2.100;2024-03-29T12:43:19;7.60;94.03
22069;DHT22;13887;57.196;-2.100;2024-03-29T12:45:46;7.63;93.88
22069;DHT22;13887;57.196;-2.100;2024-03-29T12:48:15;7.65;94.01
22069;DHT22;13887;57.196;-2.100;2024-03-29T12:50:43;7.69;93.80
22069;DHT22;13887;57.196;-2.100;2024-03-29T12:53:11;7.70;94.06
22069;DHT22;13887;57.196;-2.100;2024-03-29T12:55:42;7.73;93.88
22069;DHT22;13887;57.196;-2.100;2024-03-29T12:58:15;7.73;94.23
22069;DHT22;13887;57.196;-2.100;2024-03-29T13:00:44;7.72;94.37
22069;DHT22;13887;57.196;-2.100;2024-03-29T13:03:10;7.71;94.53
22069;DHT22;13887;57.196;-2.100;2024-03-29T13:05:37;7.73;94.60
22069;DHT22;13887;57.196;-2.100;2024-03-29T13:08:14;7.77;94.46
22069;DHT22;13887;57.196;-2.100;2024-03-29T13:10:44;7.81;94.75
22069;DHT22;13887;57.196;-2.100;2024-03-29T13:13:10;7.79;94.82
22069;DHT22;13887;57.196;-2.100;2024-03-29T13:15:38;7.79;94.78
22069;DHT22;13887;57.196;-2.100;2024-03-29T13:18:05;7.82;94.84
22069;DHT22;13887;57.196;-2.100;2024-03-29T13:20:32;7.79;94.98
22069;DHT22;13887;57.196;-2.100;2024-03-29T13:23:01;7.79;95.10
22069;DHT22;13887;57.196;-2.100;2024-03-29T13:25:27;7.82;94.98
22069;DHT22;13887;57.196;-2.100;2024-03-29T13:27:54;7.81;94.63
22069;DHT22;13887;57.196;-2.100;2024-03-29T13:30:25;7.82;94.94
22069;DHT22;13887;57.196;-2.100;2024-03-29T13:32:51;7.85;95.20
22069;DHT22;13887;57.196;-2.100;2024-03-29T13:35:18;7.85;95.04
22069;DHT22;13887;57.196;-2.100;2024-03-29T13:37:49;7.85;95.23
22069;DHT22;13887;57.196;-2.100;2024-03-29T13:40:16;7.84;95.07
22069;DHT22;13887;57.196;-2.100;2024-03-29T13:42:42;7.86;95.33
22069;DHT22;13887;57.196;-2.100;2024-03-29T13:45:09;7.88;95.43
22069;DHT22;13887;57.196;-2.100;2024-03-29T13:47:40;7.90;95.59
22069;DHT22;13887;57.196;-2.100;2024-03-29T13:50:07;7.91;95.53
22069;DHT22;13887;57.196;-2.100;2024-03-29T13:52:34;7.97;95.78
22069;DHT22;13887;57.196;-2.100;2024-03-29T13:55:01;7.98;95.63
22069;DHT22;13887;57.196;-2.100;2024-03-29T13:57:29;7.99;95.54
22069;DHT22;13887;57.196;-2.100;2024-03-29T13:59:57;8.02;95.59
22069;DHT22;13887;57.196;-2.100;2024-03-29T14:02:25;8.04;95.47
22069;DHT22;13887;57.196;-2.100;2024-03-29T14:04:53;8.03;95.29
22069;DHT22;13887;57.196;-2.100;2024-03-29T14:07:20;8.01;95.60
22069;DHT22;13887;57.196;-2.100;2024-03-29T14:09:46;8.01;95.41
22069;DHT22;13887;57.196;-2.100;2024-03-29T14:12:13;8.03;95.55
22069;DHT22;13887;57.196;-2.100;2024-03-29T14:14:40;8.06;95.51
22069;DHT22;13887;57.196;-2.100;2024-03-29T14:17:09;8.08;95.74
22069;DHT22;13887;57.196;-2.100;2024-03-29T14:19:36;8.07;95.79
22069;DHT22;13887;57.196;-2.100;2024-03-29T14:22:03;8.05;95.89
22069;DHT22;13887;57.196;-2.100;2024-03-29T14:24:30;8.05;95.55
22069;DHT22;13887;57.196;-2.100;2024-03-29T14:26:59;8.06;96.36
22069;DHT22;13887;57.196;-2.100;2024-03-29T14:29:25;8.08;95.75
22069;DHT22;13887;57.196;-2.100;2024-03-29T14:31:51;8.11;96.48
22069;DHT22;13887;57.196;-2.100;2024-03-29T14:34:20;8.09;96.17
22069;DHT22;13887;57.196;-2.100;2024-03-29T14:36:47;8.09;96.23
22069;DHT22;13887;57.196;-2.100;2024-03-29T14:39:13;8.08;95.77
22069;DHT22;13887;57.196;-2.100;2024-03-29T14:41:39;8.09;95.90
22069;DHT22;13887;57.196;-2.100;2024-03-29T14:44:06;8.11;95.87
22069;DHT22;13887;57.196;-2.100;2024-03-29T14:46:35;8.09;95.97
22069;DHT22;13887;57.196;-2.100;2024-03-29T14:49:02;8.09;95.38
22069;DHT22;13887;57.196;-2.100;2024-03-29T14:51:33;8.14;95.87
22069;DHT22;13887;57.196;-2.100;2024-03-29T14:54:00;8.12;95.72
22069;DHT22;13887;57.196;-2.100;2024-03-29T14:56:29;8.14;96.05
22069;DHT22;13887;57.196;-2.100;2024-03-29T14:59:05;8.16;95.63
22069;DHT22;13887;57.196;-2.100;2024-03-29T15:01:32;8.18;95.31
22069;DHT22;13887;57.196;-2.100;2024-03-29T15:03:58;8.18;95.87
22069;DHT22;13887;57.196;-2.100;2024-03-29T15:06:24;8.18;95.78
22069;DHT22;13887;57.196;-2.100;2024-03-29T15:08:54;8.20;96.12
22069;DHT22;13887;57.196;-2.100;2024-03-29T15:11:24;8.20;96.06
22069;DHT22;13887;57.196;-2.100;2024-03-29T15:13:51;8.21;96.03
22069;DHT22;13887;57.196;-2.100;2024-03-29T15:16:17;8.20;96.57
22069;DHT22;13887;57.196;-2.100;2024-03-29T15:18:44;8.21;96.26
22069;DHT22;13887;57.196;-2.100;2024-03-29T15:21:11;8.21;95.84
22069;DHT22;13887;57.196;-2.100;2024-03-29T15:23:37;8.21;96.35
22069;DHT22;13887;57.196;-2.100;2024-03-29T15:26:03;8.23;95.52
22069;DHT22;13887;57.196;-2.100;2024-03-29T15:28:30;8.24;95.86
22069;DHT22;13887;57.196;-2.100;2024-03-29T15:31:17;8.26;95.16
22069;DHT22;13887;57.196;-2.100;2024-03-29T15:33:46;8.24;95.87
22069;DHT22;13887;57.196;-2.100;2024-03-29T15:36:13;8.22;95.69
22069;DHT22;13887;57.196;-2.100;2024-03-29T15:38:39;8.22;94.98